createdAt,value
2018-10-01T00:01:17.910Z,8.57
2018-10-01T00:03:53.347Z,8.27
2018-10-01T00:06:27.643Z,8.13
2018-10-01T00:09:01.655Z,8.03
2018-10-01T00:11:36.779Z,7.93
2018-10-01T00:14:12.193Z,8.40
2018-10-01T00:16:44.636Z,8.27
2018-10-01T00:19:20.763Z,7.40
2018-10-01T00:21:57.728Z,7.90
2018-10-01T00:24:31.036Z,7.63
2018-10-01T00:27:07.606Z,7.90
2018-10-01T00:29:39.350Z,7.70
2018-10-01T00:32:10.962Z,7.90
2018-10-01T00:34:45.312Z,7.50
2018-10-01T00:37:15.615Z,7.43
2018-10-01T00:39:45.451Z,8.13
2018-10-01T00:42:15.627Z,7.73
2018-10-01T00:44:46.292Z,7.67
2018-10-01T00:47:16.156Z,7.87
2018-10-01T00:49:47.648Z,7.37
2018-10-01T00:52:17.884Z,7.33
2018-10-01T00:54:49.042Z,7.17
2018-10-01T00:57:18.928Z,7.00
2018-10-01T00:59:50.875Z,7.17
2018-10-01T01:02:21.261Z,7.20
2018-10-01T01:04:50.748Z,7.23
2018-10-01T01:07:20.208Z,6.87
2018-10-01T01:09:49.901Z,6.50
2018-10-01T01:12:20.451Z,6.40
2018-10-01T01:14:50.054Z,6.70
2018-10-01T01:17:21.332Z,7.07
2018-10-01T01:19:50.807Z,6.90
2018-10-01T01:22:20.347Z,7.37
2018-10-01T01:24:50.791Z,7.10
2018-10-01T01:27:20.560Z,7.07
2018-10-01T01:29:50.438Z,6.87
2018-10-01T01:32:20.686Z,7.57
2018-10-01T01:34:50.146Z,6.87
2018-10-01T01:37:35.777Z,7.20
2018-10-01T01:40:15.572Z,8.13
2018-10-01T01:42:45.869Z,7.50
2018-10-01T01:45:15.648Z,7.37
2018-10-01T01:47:46.135Z,6.90
2018-10-01T01:50:37.742Z,6.67
2018-10-01T01:53:11.923Z,7.40
2018-10-01T01:55:41.375Z,7.40
2018-10-01T01:58:12.734Z,7.40
2018-10-01T02:00:42.544Z,7.17
2018-10-01T02:03:12.852Z,6.93
2018-10-01T02:05:42.440Z,6.73
2018-10-01T02:08:11.905Z,7.20
2018-10-01T02:10:41.988Z,7.73
2018-10-01T02:13:11.829Z,7.30
2018-10-01T02:15:41.584Z,7.20
2018-10-01T02:18:11.230Z,7.10
2018-10-01T02:20:40.943Z,7.27
2018-10-01T02:23:10.362Z,6.90
2018-10-01T02:25:40.581Z,6.70
2018-10-01T02:28:10.756Z,7.13
2018-10-01T02:30:40.991Z,6.97
2018-10-01T02:33:10.293Z,7.40
2018-10-01T02:35:40.653Z,7.73
2018-10-01T02:38:10.407Z,6.93
2018-10-01T02:40:40.720Z,7.63
2018-10-01T02:43:10.950Z,7.83
2018-10-01T02:45:41.373Z,7.83
2018-10-01T02:48:11.257Z,7.17
2018-10-01T02:50:40.845Z,6.03
2018-10-01T02:53:15.824Z,7.17
2018-10-01T02:55:45.201Z,7.30
2018-10-01T02:58:14.753Z,7.47
2018-10-01T03:00:44.061Z,7.13
2018-10-01T03:03:14.873Z,6.13
2018-10-01T03:05:44.530Z,6.70
2018-10-01T03:08:14.468Z,6.33
2018-10-01T03:10:44.423Z,5.70
2018-10-01T03:13:14.640Z,5.47
2018-10-01T03:15:44.545Z,5.80
2018-10-01T03:18:14.210Z,5.00
2018-10-01T03:20:43.874Z,5.23
2018-10-01T03:23:13.342Z,4.90
2018-10-01T03:25:43.010Z,4.70
2018-10-01T03:28:12.441Z,5.17
2018-10-01T03:30:43.227Z,4.73
2018-10-01T03:33:12.550Z,4.57
2018-10-01T03:35:41.964Z,4.53
2018-10-01T03:38:11.446Z,5.10
2018-10-01T03:40:40.836Z,4.77
2018-10-01T03:43:10.170Z,5.50
2018-10-01T03:45:46.606Z,4.00
2018-10-01T03:48:16.171Z,5.40
2018-10-01T03:50:49.912Z,4.20
2018-10-01T03:53:19.507Z,4.27
2018-10-01T03:55:48.965Z,4.30
2018-10-01T03:58:18.474Z,4.50
2018-10-01T04:00:49.999Z,4.27
2018-10-01T04:03:19.448Z,5.07
2018-10-01T04:05:48.881Z,4.43
2018-10-01T04:08:18.620Z,5.20
2018-10-01T04:10:49.808Z,4.40
2018-10-01T04:13:19.238Z,4.73
2018-10-01T04:15:49.510Z,5.53
2018-10-01T04:18:19.301Z,4.60
2018-10-01T04:20:50.772Z,5.10
2018-10-01T04:23:21.161Z,5.17
2018-10-01T04:25:50.527Z,5.30
2018-10-01T04:28:20.150Z,5.20
2018-10-01T04:30:50.403Z,5.40
2018-10-01T04:33:20.352Z,6.30
2018-10-01T04:35:50.367Z,5.93
2018-10-01T04:38:21.421Z,6.10
2018-10-01T04:40:51.996Z,5.17
2018-10-01T04:43:22.678Z,5.77
2018-10-01T04:45:52.099Z,5.80
2018-10-01T04:48:22.798Z,5.60
2018-10-01T04:50:52.316Z,6.23
2018-10-01T04:53:22.092Z,6.03
2018-10-01T04:55:53.222Z,5.90
2018-10-01T04:58:23.987Z,5.93
2018-10-01T05:00:53.590Z,7.53
2018-10-01T05:03:23.221Z,6.07
2018-10-01T05:05:55.855Z,5.97
2018-10-01T05:08:26.966Z,5.33
2018-10-01T05:10:56.347Z,5.43
2018-10-01T05:13:26.236Z,5.10
2018-10-01T05:15:55.713Z,5.80
2018-10-01T05:18:28.405Z,5.17
2018-10-01T05:20:57.857Z,5.43
2018-10-01T05:23:27.389Z,5.33
2018-10-01T05:26:00.962Z,5.50
2018-10-01T05:28:30.942Z,4.53
2018-10-01T05:31:01.912Z,4.93
2018-10-01T05:33:31.382Z,4.57
2018-10-01T05:36:02.251Z,4.47
2018-10-01T05:38:32.496Z,4.30
2018-10-01T05:41:03.399Z,4.70
2018-10-01T05:43:32.973Z,4.57
2018-10-01T05:46:02.864Z,4.07
2018-10-01T05:48:32.297Z,4.10
2018-10-01T05:51:02.514Z,3.87
2018-10-01T05:53:32.466Z,3.70
2018-10-01T05:56:04.142Z,4.07
2018-10-01T05:58:34.198Z,3.77
2018-10-01T06:01:03.862Z,4.13
2018-10-01T06:03:33.522Z,4.40
2018-10-01T06:06:03.146Z,3.90
2018-10-01T06:08:33.048Z,3.70
2018-10-01T06:11:03.472Z,4.70
2018-10-01T06:13:33.382Z,3.50
2018-10-01T06:16:03.115Z,17.70
2018-10-01T06:18:32.598Z,3.37
2018-10-01T06:21:02.323Z,3.70
2018-10-01T06:23:32.132Z,3.60
2018-10-01T06:26:02.433Z,3.80
2018-10-01T06:28:31.887Z,3.27
2018-10-01T06:31:01.336Z,3.33
2018-10-01T06:33:31.068Z,3.10
2018-10-01T06:36:01.381Z,3.73
2018-10-01T06:38:31.282Z,3.20
2018-10-01T06:41:01.735Z,3.77
2018-10-01T06:43:33.997Z,3.30
2018-10-01T06:46:03.309Z,3.60
2018-10-01T06:48:33.192Z,3.13
2018-10-01T06:51:03.439Z,2.97
2018-10-01T06:53:33.313Z,3.00
2018-10-01T06:56:03.047Z,3.27
2018-10-01T06:58:32.843Z,2.80
2018-10-01T07:01:02.805Z,2.93
2018-10-01T07:03:33.396Z,3.90
2018-10-01T07:06:03.159Z,2.97
2018-10-01T07:08:32.516Z,3.30
2018-10-01T07:11:02.215Z,3.30
2018-10-01T07:13:31.518Z,3.10
2018-10-01T07:16:01.050Z,3.33
2018-10-01T07:18:30.414Z,3.13
2018-10-01T07:20:59.759Z,5.83
2018-10-01T07:23:29.283Z,3.00
2018-10-01T07:25:58.673Z,3.30
2018-10-01T07:28:28.071Z,2.70
2018-10-01T07:30:58.591Z,3.37
2018-10-01T07:33:28.111Z,2.40
2018-10-01T07:35:58.155Z,2.53
2018-10-01T07:38:28.677Z,2.60
2018-10-01T07:40:58.388Z,2.33
2018-10-01T07:43:28.233Z,2.50
2018-10-01T07:45:58.573Z,2.03
2018-10-01T07:48:27.953Z,2.43
2018-10-01T07:50:58.140Z,2.10
2018-10-01T07:53:27.813Z,2.63
2018-10-01T07:55:57.490Z,2.17
2018-10-01T07:58:27.941Z,2.33
2018-10-01T08:00:57.433Z,2.03
2018-10-01T08:03:30.681Z,2.23
2018-10-01T08:06:00.076Z,2.17
2018-10-01T08:08:29.411Z,2.53
2018-10-01T08:10:59.426Z,1.60
2018-10-01T08:13:29.067Z,2.23
2018-10-01T08:15:59.640Z,1.60
2018-10-01T08:18:29.054Z,1.70
2018-10-01T08:20:58.812Z,1.60
2018-10-01T08:23:31.895Z,1.70
2018-10-01T08:26:01.500Z,1.93
2018-10-01T08:28:30.958Z,2.43
2018-10-01T08:31:00.839Z,1.90
2018-10-01T08:33:30.401Z,1.93
2018-10-01T08:36:00.542Z,1.83
2018-10-01T08:38:30.035Z,1.40
2018-10-01T08:40:59.664Z,1.50
2018-10-01T08:43:29.986Z,1.50
2018-10-01T08:45:59.395Z,1.87
2018-10-01T08:48:29.890Z,1.90
2018-10-01T08:51:04.548Z,2.30
2018-10-01T08:54:37.120Z,2.43
2018-10-01T08:57:06.639Z,2.00
2018-10-01T08:59:36.078Z,2.20
2018-10-01T09:02:05.472Z,2.07
2018-10-01T09:04:34.879Z,2.43
2018-10-01T09:07:04.568Z,2.00
2018-10-01T09:09:34.195Z,1.97
2018-10-01T09:12:03.943Z,1.60
2018-10-01T09:14:40.191Z,1.90
2018-10-01T09:17:10.744Z,1.60
2018-10-01T09:19:40.242Z,1.73
2018-10-01T09:22:10.865Z,2.20
2018-10-01T09:24:41.398Z,2.00
2018-10-01T09:27:12.026Z,1.60
2018-10-01T09:29:41.539Z,2.00
2018-10-01T09:32:13.517Z,1.60
2018-10-01T09:34:43.136Z,1.40
2018-10-01T09:37:12.808Z,1.93
2018-10-01T09:39:42.194Z,1.53
2018-10-01T09:42:12.185Z,1.80
2018-10-01T09:44:42.240Z,1.33
2018-10-01T09:47:14.849Z,1.00
2018-10-01T09:49:44.540Z,1.30
2018-10-01T09:52:14.354Z,0.90
2018-10-01T09:54:43.893Z,3.90
2018-10-01T09:57:16.658Z,1.73
2018-10-01T09:59:46.668Z,1.80
2018-10-01T10:02:19.635Z,1.53
2018-10-01T10:04:50.411Z,1.50
2018-10-01T10:07:21.927Z,1.60
2018-10-01T10:09:51.710Z,1.43
2018-10-01T10:12:21.221Z,1.53
2018-10-01T10:14:50.961Z,1.53
2018-10-01T10:17:20.781Z,1.30
2018-10-01T10:19:50.554Z,1.47
2018-10-01T10:22:20.015Z,1.53
2018-10-01T10:24:50.306Z,1.30
2018-10-01T10:27:19.820Z,1.43
2018-10-01T10:29:50.080Z,1.30
2018-10-01T10:32:20.609Z,1.47
2018-10-01T10:34:50.168Z,4.43
2018-10-01T10:37:20.744Z,2.20
2018-10-01T10:39:50.303Z,1.40
2018-10-01T10:42:21.412Z,2.00
2018-10-01T10:44:58.418Z,1.10
2018-10-01T10:47:27.795Z,2.60
2018-10-01T10:49:58.462Z,1.70
2018-10-01T10:52:27.934Z,1.37
2018-10-01T10:54:59.530Z,1.27
2018-10-01T10:57:36.453Z,1.13
2018-10-01T11:00:06.610Z,1.00
2018-10-01T11:02:39.363Z,0.80
2018-10-01T11:05:08.723Z,1.10
2018-10-01T11:07:38.323Z,1.20
2018-10-01T11:10:08.794Z,1.10
2018-10-01T11:12:39.339Z,0.90
2018-10-01T11:15:11.077Z,1.70
2018-10-01T11:17:41.607Z,1.53
2018-10-01T11:20:13.437Z,1.30
2018-10-01T11:22:42.876Z,1.53
2018-10-01T11:25:12.543Z,1.20
2018-10-01T11:27:41.842Z,1.07
2018-10-01T11:30:11.270Z,1.37
2018-10-01T11:32:40.789Z,1.20
2018-10-01T11:35:10.293Z,0.80
2018-10-01T11:37:39.977Z,0.60
2018-10-01T11:40:09.825Z,0.70
2018-10-01T11:42:39.842Z,0.70
2018-10-01T11:45:16.644Z,0.53
2018-10-01T11:47:47.264Z,0.70
2018-10-01T11:50:16.640Z,0.90
2018-10-01T11:52:46.255Z,1.07
2018-10-01T11:55:16.645Z,1.13
2018-10-01T11:57:47.135Z,1.00
2018-10-01T12:00:17.809Z,1.23
2018-10-01T12:02:47.676Z,1.30
2018-10-01T12:05:17.685Z,1.70
2018-10-01T12:07:48.524Z,1.70
2018-10-01T12:10:18.015Z,1.80
2018-10-01T12:12:47.662Z,1.50
2018-10-01T12:15:17.266Z,1.60
2018-10-01T12:17:47.631Z,1.70
2018-10-01T12:20:17.647Z,1.50
2018-10-01T12:22:48.015Z,1.60
2018-10-01T12:25:17.634Z,1.60
2018-10-01T12:27:47.174Z,1.77
2018-10-01T12:30:16.474Z,1.43
2018-10-01T12:32:46.122Z,3.10
2018-10-01T12:35:15.927Z,2.00
2018-10-01T12:37:46.064Z,1.40
2018-10-01T12:40:16.521Z,2.27
2018-10-01T12:42:46.608Z,1.97
2018-10-01T12:45:16.018Z,1.73
2018-10-01T12:47:45.427Z,1.60
2018-10-01T12:50:15.916Z,2.03
2018-10-01T12:52:46.574Z,1.93
2018-10-01T12:55:16.853Z,1.83
2018-10-01T12:57:46.464Z,1.33
2018-10-01T13:00:16.194Z,1.77
2018-10-01T13:02:46.287Z,1.30
2018-10-01T13:05:16.891Z,1.83
2018-10-01T13:07:46.584Z,1.40
2018-10-01T13:10:16.776Z,1.10
2018-10-01T13:12:47.321Z,1.40
2018-10-01T13:15:18.418Z,1.30
2018-10-01T13:17:48.090Z,1.37
2018-10-01T13:20:18.941Z,0.90
2018-10-01T13:22:48.776Z,1.30
2018-10-01T13:25:19.102Z,1.33
2018-10-01T13:27:49.553Z,1.40
2018-10-01T13:30:20.173Z,1.53
2018-10-01T13:32:49.615Z,1.43
2018-10-01T13:35:19.856Z,1.73
2018-10-01T13:37:49.545Z,1.83
2018-10-01T13:40:19.770Z,1.93
2018-10-01T13:42:50.284Z,2.23
2018-10-01T13:45:19.853Z,2.13
2018-10-01T13:47:50.486Z,2.20
2018-10-01T13:50:20.767Z,3.50
2018-10-01T13:52:50.223Z,2.90
2018-10-01T13:55:20.696Z,2.80
2018-10-01T13:57:50.488Z,2.03
2018-10-01T14:00:20.568Z,2.40
2018-10-01T14:02:50.727Z,2.87
2018-10-01T14:05:22.156Z,3.00
2018-10-01T14:07:52.064Z,3.03
2018-10-01T14:10:21.718Z,2.97
2018-10-01T14:12:51.233Z,3.13
2018-10-01T14:15:21.872Z,3.17
2018-10-01T14:17:53.214Z,2.67
2018-10-01T14:20:22.919Z,2.80
2018-10-01T14:22:53.039Z,3.40
2018-10-01T14:25:23.617Z,2.43
2018-10-01T14:27:53.160Z,2.40
2018-10-01T14:30:22.877Z,2.17
2018-10-01T14:32:53.182Z,2.13
2018-10-01T14:35:22.728Z,3.30
2018-10-01T14:37:52.236Z,2.20
2018-10-01T14:40:21.826Z,3.10
2018-10-01T14:42:51.571Z,2.60
2018-10-01T14:45:21.161Z,2.30
2018-10-01T14:47:50.629Z,2.23
2018-10-01T14:50:20.691Z,2.17
2018-10-01T14:52:51.413Z,2.17
2018-10-01T14:55:20.718Z,2.30
2018-10-01T14:57:50.365Z,2.17
2018-10-01T15:00:21.219Z,2.03
2018-10-01T15:02:50.492Z,2.37
2018-10-01T15:05:19.928Z,2.40
2018-10-01T15:07:56.503Z,2.80
2018-10-01T15:10:26.688Z,2.40
2018-10-01T15:12:56.649Z,2.70
2018-10-01T15:15:26.467Z,2.90
2018-10-01T15:17:56.950Z,2.97
2018-10-01T15:20:26.454Z,2.87
2018-10-01T15:23:01.179Z,3.37
2018-10-01T15:25:31.233Z,2.50
2018-10-01T15:28:00.721Z,2.43
2018-10-01T15:30:32.172Z,2.13
2018-10-01T15:33:02.059Z,1.83
2018-10-01T15:35:31.782Z,1.57
2018-10-01T15:38:04.349Z,1.83
2018-10-01T15:40:34.174Z,1.03
2018-10-01T15:43:03.969Z,1.23
2018-10-01T15:45:33.948Z,1.43
2018-10-01T15:48:03.939Z,1.03
2018-10-01T15:50:33.555Z,1.20
2018-10-01T15:53:03.773Z,1.00
2018-10-01T15:55:33.623Z,1.13
2018-10-01T15:58:03.396Z,1.13
2018-10-01T16:00:32.871Z,1.20
2018-10-01T16:03:02.349Z,1.80
2018-10-01T16:05:32.628Z,1.10
2018-10-01T16:08:03.122Z,1.93
2018-10-01T16:10:33.303Z,1.67
2018-10-01T16:13:05.448Z,1.47
2018-10-01T16:15:34.861Z,1.33
2018-10-01T16:18:12.740Z,1.67
2018-10-01T16:20:42.360Z,2.00
2018-10-01T16:23:12.112Z,2.10
2018-10-01T16:25:41.968Z,1.63
2018-10-01T16:28:13.014Z,2.33
2018-10-01T16:30:42.731Z,2.07
2018-10-01T16:33:12.214Z,1.87
2018-10-01T16:35:48.637Z,2.10
2018-10-01T16:38:18.245Z,2.00
2018-10-01T16:40:48.023Z,1.90
2018-10-01T16:43:17.693Z,2.37
2018-10-01T16:45:47.417Z,2.10
2018-10-01T16:48:17.069Z,2.20
2018-10-01T16:50:46.432Z,1.50
2018-10-01T16:53:15.886Z,1.87
2018-10-01T16:55:45.569Z,2.33
2018-10-01T16:58:16.402Z,1.97
2018-10-01T17:00:45.779Z,1.80
2018-10-01T17:03:16.513Z,1.73
2018-10-01T17:05:46.090Z,1.80
2018-10-01T17:08:15.810Z,2.20
2018-10-01T17:10:45.427Z,1.90
2018-10-01T17:13:15.555Z,2.27
2018-10-01T17:15:45.384Z,3.77
2018-10-01T17:18:15.400Z,2.03
2018-10-01T17:20:45.575Z,2.00
2018-10-01T17:23:18.325Z,2.00
2018-10-01T17:25:49.200Z,1.67
2018-10-01T17:28:18.856Z,1.87
2018-10-01T17:30:48.466Z,2.43
2018-10-01T17:33:18.176Z,2.13
2018-10-01T17:35:47.695Z,1.93
2018-10-01T17:38:19.258Z,3.13
2018-10-01T17:40:50.068Z,3.60
2018-10-01T17:43:21.939Z,4.13
2018-10-01T17:45:51.450Z,2.50
2018-10-01T17:48:21.301Z,2.37
2018-10-01T17:50:51.068Z,1.70
2018-10-01T17:53:21.391Z,1.80
2018-10-01T17:55:52.138Z,5.20
2018-10-01T17:58:23.732Z,2.40
2018-10-01T18:00:55.077Z,2.50
2018-10-01T18:03:32.025Z,2.70
2018-10-01T18:06:02.802Z,2.70
2018-10-01T18:08:33.215Z,2.67
2018-10-01T18:11:03.067Z,2.10
2018-10-01T18:13:32.633Z,2.10
2018-10-01T18:16:02.319Z,2.47
2018-10-01T18:18:32.060Z,2.43
2018-10-01T18:21:02.114Z,2.23
2018-10-01T18:23:31.728Z,2.43
2018-10-01T18:26:02.170Z,2.20
2018-10-01T18:28:31.820Z,2.10
2018-10-01T18:31:01.494Z,2.50
2018-10-01T18:33:31.296Z,2.63
2018-10-01T18:36:08.841Z,2.53
2018-10-01T18:38:38.492Z,8.27
2018-10-01T18:41:09.197Z,2.60
2018-10-01T18:43:39.693Z,2.03
2018-10-01T18:46:09.125Z,1.87
2018-10-01T18:48:39.883Z,2.40
2018-10-01T18:51:10.675Z,2.97
2018-10-01T18:53:40.684Z,2.03
2018-10-01T18:56:11.873Z,2.20
2018-10-01T18:58:44.092Z,2.80
2018-10-01T19:01:13.637Z,2.20
2018-10-01T19:03:45.347Z,2.73
2018-10-01T19:06:15.207Z,3.00
2018-10-01T19:08:46.443Z,2.30
2018-10-01T19:11:16.777Z,6.73
2018-10-01T19:13:49.179Z,2.27
2018-10-01T19:16:19.166Z,2.23
2018-10-01T19:18:49.585Z,2.57
2018-10-01T19:21:19.464Z,11.20
2018-10-01T19:23:49.090Z,2.33
2018-10-01T19:26:19.148Z,2.77
2018-10-01T19:28:49.203Z,1.93
2018-10-01T19:31:18.826Z,2.37
2018-10-01T19:33:49.163Z,2.20
2018-10-01T19:36:18.621Z,2.03
2018-10-01T19:38:51.514Z,2.40
2018-10-01T19:41:21.037Z,2.73
2018-10-01T19:43:50.371Z,2.60
2018-10-01T19:46:20.261Z,2.40
2018-10-01T19:48:50.431Z,2.30
2018-10-01T19:51:20.265Z,1.93
2018-10-01T19:53:50.021Z,2.30
2018-10-01T19:56:19.787Z,2.40
2018-10-01T19:58:50.000Z,2.63
2018-10-01T20:01:20.296Z,1.87
2018-10-01T20:03:51.661Z,2.50
2018-10-01T20:06:21.486Z,2.50
2018-10-01T20:08:51.759Z,2.23
2018-10-01T20:11:21.618Z,2.93
2018-10-01T20:13:51.056Z,2.23
2018-10-01T20:16:21.162Z,2.00
2018-10-01T20:18:50.811Z,2.53
2018-10-01T20:21:21.841Z,2.47
2018-10-01T20:23:51.259Z,2.30
2018-10-01T20:26:20.859Z,2.43
2018-10-01T20:28:51.311Z,2.40
2018-10-01T20:31:21.459Z,2.10
2018-10-01T20:33:52.148Z,2.17
2018-10-01T20:36:21.980Z,2.43
2018-10-01T20:38:52.381Z,2.60
2018-10-01T20:41:21.935Z,2.27
2018-10-01T20:43:51.796Z,2.70
2018-10-01T20:46:21.658Z,2.90
2018-10-01T20:48:51.744Z,2.40
2018-10-01T20:51:21.422Z,2.67
2018-10-01T20:53:51.324Z,2.87
2018-10-01T20:56:21.188Z,2.70
2018-10-01T20:58:51.006Z,1.80
2018-10-01T21:01:21.638Z,2.30
2018-10-01T21:03:51.260Z,2.27
2018-10-01T21:06:21.845Z,2.50
2018-10-01T21:08:51.495Z,2.90
2018-10-01T21:11:21.231Z,2.47
2018-10-01T21:13:52.209Z,2.53
2018-10-01T21:16:22.676Z,2.90
2018-10-01T21:18:52.339Z,2.70
2018-10-01T21:21:22.081Z,2.87
2018-10-01T21:23:51.495Z,2.70
2018-10-01T21:26:21.262Z,3.00
2018-10-01T21:28:50.744Z,3.30
2018-10-01T21:31:20.403Z,2.97
2018-10-01T21:33:50.445Z,2.90
2018-10-01T21:36:19.988Z,3.77
2018-10-01T21:38:49.745Z,2.70
2018-10-01T21:41:19.946Z,2.83
2018-10-01T21:43:50.662Z,3.10
2018-10-01T21:46:21.348Z,2.50
2018-10-01T21:48:50.887Z,2.73
2018-10-01T21:51:21.311Z,2.20
2018-10-01T21:53:50.715Z,3.00
2018-10-01T21:56:20.333Z,3.47
2018-10-01T21:58:50.255Z,2.70
2018-10-01T22:01:25.103Z,2.50
2018-10-01T22:03:54.865Z,2.70
2018-10-01T22:06:24.746Z,3.03
2018-10-01T22:08:54.524Z,2.63
2018-10-01T22:11:24.231Z,2.57
2018-10-01T22:13:53.745Z,2.87
2018-10-01T22:16:24.689Z,2.60
2018-10-01T22:18:54.150Z,2.60
2018-10-01T22:21:24.723Z,2.33
2018-10-01T22:23:54.843Z,2.60
2018-10-01T22:26:24.718Z,2.37
2018-10-01T22:28:54.017Z,2.40
2018-10-01T22:31:24.192Z,2.70
2018-10-01T22:33:53.895Z,2.30
2018-10-01T22:36:23.537Z,2.73
2018-10-01T22:38:54.698Z,2.47
2018-10-01T22:41:24.554Z,2.97
2018-10-01T22:43:55.097Z,2.60
2018-10-01T22:46:25.294Z,2.53
2018-10-01T22:48:55.688Z,2.50
2018-10-01T22:51:26.252Z,2.63
2018-10-01T22:53:56.410Z,3.07
2018-10-01T22:56:25.810Z,2.43
2018-10-01T22:58:56.647Z,2.70
2018-10-01T23:01:26.084Z,2.63
2018-10-01T23:03:56.543Z,2.60
2018-10-01T23:06:26.819Z,2.40
2018-10-01T23:08:56.609Z,2.83
2018-10-01T23:11:26.397Z,2.60
2018-10-01T23:13:56.543Z,2.30
2018-10-01T23:16:26.077Z,2.40
2018-10-01T23:18:55.759Z,2.40
2018-10-01T23:21:25.246Z,2.50
2018-10-01T23:23:54.596Z,2.40
2018-10-01T23:26:24.128Z,2.50
2018-10-01T23:28:53.617Z,2.17
2018-10-01T23:31:24.006Z,2.30
2018-10-01T23:33:53.833Z,2.30
2018-10-01T23:36:23.972Z,2.37
2018-10-01T23:38:54.087Z,2.33
2018-10-01T23:41:25.855Z,2.37
2018-10-01T23:43:55.277Z,2.40
2018-10-01T23:46:25.089Z,2.40
2018-10-01T23:48:55.992Z,1.87
2018-10-01T23:51:25.803Z,2.10
2018-10-01T23:53:55.341Z,2.80
2018-10-01T23:56:25.537Z,2.40
2018-10-01T23:58:55.235Z,2.40
